Time;durP1;ratioP1;P1;durP2;ratioP2;P2;SDS_P1;SDS_P2;PMS_P1;PMS_P2;Temp;Humidity;BMP_temperature;BMP_pressure;BME280_temperature;BME280_humidity;BME280_pressure;Samples;Min_cycle;Max_cycle;Signal;HPM_P1;HPM_P2
2022/08/09 00:01:47;;;;;;;10.80;3.22;;;;;;;;;;5037891;28;20085;-65
2022/08/09 00:04:22;;;;;;;7.15;2.83;;;;;;;;;;5038153;28;20066;-65
2022/08/09 00:06:48;;;;;;;9.52;2.90;;;;;;;;;;5041754;28;20028;-64
2022/08/09 00:09:16;;;;;;;10.73;3.20;;;;;;;;;;5039896;28;20037;-66
2022/08/09 00:11:43;;;;;;;8.93;2.85;;;;;;;;;;5035109;28;20127;-65
2022/08/09 00:14:09;;;;;;;8.18;3.00;;;;;;;;;;5040557;28;20371;-65
2022/08/09 00:16:36;;;;;;;9.68;2.85;;;;;;;;;;5040997;28;20390;-65
2022/08/09 00:19:02;;;;;;;7.43;2.65;;;;;;;;;;5052576;28;20108;-65
2022/08/09 00:21:28;;;;;;;7.80;2.65;;;;;;;;;;5038035;28;20101;-65
2022/08/09 00:23:54;;;;;;;8.88;3.25;;;;;;;;;;5043191;28;20207;-65
2022/08/09 00:26:21;;;;;;;9.32;2.80;;;;;;;;;;5036439;28;20048;-65
2022/08/09 00:28:47;;;;;;;11.32;3.20;;;;;;;;;;5041396;28;20026;-65
2022/08/09 00:31:13;;;;;;;9.68;3.15;;;;;;;;;;5035822;28;20430;-65
2022/08/09 00:33:41;;;;;;;10.25;2.90;;;;;;;;;;5041651;28;20458;-64
2022/08/09 00:36:07;;;;;;;10.50;2.92;;;;;;;;;;5039040;28;20051;-67
2022/08/09 00:38:34;;;;;;;7.80;3.03;;;;;;;;;;5037699;28;20467;-64
2022/08/09 00:41:00;;;;;;;8.85;2.83;;;;;;;;;;5043837;28;20095;-65
2022/08/09 00:43:26;;;;;;;7.50;3.25;;;;;;;;;;5043010;28;20472;-65
2022/08/09 00:45:52;;;;;;;9.05;3.08;;;;;;;;;;5057171;28;20021;-65
2022/08/09 00:48:18;;;;;;;8.98;2.90;;;;;;;;;;5037446;28;20545;-64
2022/08/09 00:50:44;;;;;;;8.20;2.90;;;;;;;;;;5045501;28;20036;-65
2022/08/09 00:53:11;;;;;;;11.15;2.88;;;;;;;;;;5038936;28;20190;-65
2022/08/09 00:55:37;;;;;;;6.43;2.65;;;;;;;;;;5045791;28;20550;-65
2022/08/09 00:58:03;;;;;;;9.07;3.42;;;;;;;;;;5043958;28;20432;-65
2022/08/09 01:00:30;;;;;;;9.45;3.60;;;;;;;;;;5038134;28;22845;-65
2022/08/09 01:03:02;;;;;;;8.52;3.35;;;;;;;;;;5044774;28;20025;-65
2022/08/09 01:05:32;;;;;;;11.55;3.13;;;;;;;;;;5041193;28;20621;-65
2022/08/09 01:08:04;;;;;;;11.32;3.47;;;;;;;;;;5039764;28;20573;-65
2022/08/09 01:10:36;;;;;;;7.03;2.83;;;;;;;;;;5038880;28;20036;-65
2022/08/09 01:13:07;;;;;;;9.48;3.30;;;;;;;;;;5048527;28;20877;-65
2022/08/09 01:15:36;;;;;;;10.55;3.30;;;;;;;;;;5040718;28;20853;-67
2022/08/09 01:18:11;;;;;;;7.82;2.88;;;;;;;;;;5043053;28;20116;-65
2022/08/09 01:20:54;;;;;;;11.30;3.17;;;;;;;;;;5044384;28;20939;-65
2022/08/09 01:23:26;;;;;;;9.15;3.20;;;;;;;;;;5039546;28;20116;-65
2022/08/09 01:26:11;;;;;;;8.40;3.22;;;;;;;;;;5042901;28;20153;-65
2022/08/09 01:28:40;;;;;;;7.40;3.05;;;;;;;;;;5041251;28;20045;-65
2022/08/09 01:31:10;;;;;;;8.55;2.90;;;;;;;;;;5041723;28;20028;-66
2022/08/09 01:33:38;;;;;;;8.00;2.70;;;;;;;;;;5058339;28;20040;-66
2022/08/09 01:36:06;;;;;;;8.98;3.03;;;;;;;;;;5041035;28;20139;-65
2022/08/09 01:38:35;;;;;;;8.60;2.80;;;;;;;;;;5035718;28;20033;-65
2022/08/09 01:41:04;;;;;;;8.02;3.00;;;;;;;;;;5051396;28;20111;-65
2022/08/09 01:43:32;;;;;;;8.75;2.95;;;;;;;;;;5039942;28;21057;-65
2022/08/09 01:45:58;;;;;;;10.75;3.08;;;;;;;;;;5042110;28;20066;-65
2022/08/09 01:48:26;;;;;;;8.57;3.17;;;;;;;;;;5041366;28;20078;-65
2022/08/09 01:50:53;;;;;;;9.13;2.80;;;;;;;;;;5040772;28;20075;-65
2022/08/09 01:53:23;;;;;;;9.57;3.30;;;;;;;;;;5040569;28;20040;-65
2022/08/09 01:55:52;;;;;;;7.03;3.00;;;;;;;;;;5039764;28;20035;-65
2022/08/09 01:58:18;;;;;;;8.70;3.08;;;;;;;;;;5039312;28;20032;-65
2022/08/09 02:00:45;;;;;;;8.52;2.88;;;;;;;;;;5039802;28;20659;-65
2022/08/09 02:03:12;;;;;;;10.15;2.97;;;;;;;;;;5035620;28;20024;-65
2022/08/09 02:05:38;;;;;;;9.45;3.17;;;;;;;;;;5040573;28;20068;-65
2022/08/09 02:08:08;;;;;;;7.60;3.00;;;;;;;;;;5041777;28;20167;-65
2022/08/09 02:10:37;;;;;;;9.75;3.28;;;;;;;;;;5038502;28;20452;-65
2022/08/09 02:13:05;;;;;;;8.40;3.08;;;;;;;;;;5042356;28;20383;-65
2022/08/09 02:15:33;;;;;;;6.95;2.72;;;;;;;;;;5036345;28;20466;-65
2022/08/09 02:18:00;;;;;;;8.98;2.88;;;;;;;;;;5039633;28;20462;-65
2022/08/09 02:20:28;;;;;;;6.45;2.53;;;;;;;;;;5037815;28;20074;-67
2022/08/09 02:22:54;;;;;;;8.77;2.97;;;;;;;;;;5040645;28;20044;-65
2022/08/09 02:25:22;;;;;;;7.72;2.90;;;;;;;;;;5037814;28;20264;-66
2022/08/09 02:27:54;;;;;;;6.20;2.60;;;;;;;;;;5059229;28;20039;-66
2022/08/09 02:30:21;;;;;;;6.47;2.45;;;;;;;;;;5041113;28;20058;-66
2022/08/09 02:32:47;;;;;;;9.65;2.67;;;;;;;;;;5040206;28;20032;-64
2022/08/09 02:35:22;;;;;;;8.77;3.00;;;;;;;;;;5036773;28;20054;-65
2022/08/09 02:37:51;;;;;;;9.30;2.58;;;;;;;;;;5042441;28;20024;-65
2022/08/09 02:40:18;;;;;;;7.78;2.92;;;;;;;;;;5052342;28;20645;-65
2022/08/09 02:42:45;;;;;;;7.10;2.80;;;;;;;;;;5036457;28;21218;-65
2022/08/09 02:45:16;;;;;;;7.88;3.08;;;;;;;;;;5032602;28;20795;-66
2022/08/09 02:47:44;;;;;;;11.07;3.40;;;;;;;;;;5039637;28;20048;-65
2022/08/09 02:50:16;;;;;;;7.82;2.72;;;;;;;;;;5033777;28;20413;-66
2022/08/09 02:52:56;;;;;;;7.22;2.60;;;;;;;;;;5038893;28;20518;-66
2022/08/09 02:55:24;;;;;;;11.40;2.85;;;;;;;;;;5034753;28;20040;-66
2022/08/09 02:57:51;;;;;;;8.88;2.88;;;;;;;;;;5041466;28;20021;-66
2022/08/09 03:00:17;;;;;;;9.18;2.75;;;;;;;;;;5037841;28;20032;-66
2022/08/09 03:02:46;;;;;;;9.30;2.90;;;;;;;;;;5043390;28;20028;-64
2022/08/09 03:05:12;;;;;;;11.82;3.50;;;;;;;;;;5039512;28;20029;-64
2022/08/09 03:07:40;;;;;;;12.27;3.58;;;;;;;;;;5042472;28;20394;-65
2022/08/09 03:10:06;;;;;;;9.50;3.75;;;;;;;;;;5043719;28;20029;-65
2022/08/09 03:12:33;;;;;;;13.00;3.65;;;;;;;;;;5039450;28;20055;-65
2022/08/09 03:15:00;;;;;;;9.68;3.28;;;;;;;;;;5042212;28;20070;-64
2022/08/09 03:17:28;;;;;;;14.65;4.25;;;;;;;;;;5039677;28;20024;-64
2022/08/09 03:19:56;;;;;;;13.98;4.18;;;;;;;;;;5035010;28;20028;-65
2022/08/09 03:22:22;;;;;;;13.57;3.33;;;;;;;;;;5039220;28;20503;-66
2022/08/09 03:24:48;;;;;;;8.98;3.40;;;;;;;;;;5037699;28;20359;-65
2022/08/09 03:27:15;;;;;;;11.60;3.72;;;;;;;;;;5039695;28;20573;-64
2022/08/09 03:29:41;;;;;;;9.75;3.65;;;;;;;;;;5042408;28;20550;-65
2022/08/09 03:32:08;;;;;;;9.75;3.70;;;;;;;;;;5040554;28;20028;-64
2022/08/09 03:34:34;;;;;;;10.75;3.67;;;;;;;;;;5041525;28;20457;-64
2022/08/09 03:37:00;;;;;;;13.38;3.80;;;;;;;;;;5038169;28;20129;-65
2022/08/09 03:39:28;;;;;;;10.93;3.50;;;;;;;;;;5036197;28;20032;-65
2022/08/09 03:41:54;;;;;;;10.15;3.38;;;;;;;;;;5038113;28;20147;-64
2022/08/09 03:44:21;;;;;;;8.68;3.28;;;;;;;;;;5036242;28;20083;-66
2022/08/09 03:46:48;;;;;;;10.80;3.55;;;;;;;;;;5034481;28;20033;-64
2022/08/09 03:49:16;;;;;;;8.48;3.42;;;;;;;;;;5032164;28;20573;-66
2022/08/09 03:51:44;;;;;;;10.35;3.42;;;;;;;;;;5041868;28;20386;-64
2022/08/09 03:54:10;;;;;;;10.10;3.38;;;;;;;;;;5032806;28;21146;-66
2022/08/09 03:56:37;;;;;;;9.40;3.63;;;;;;;;;;5043344;28;20493;-64
2022/08/09 03:59:03;;;;;;;10.85;3.55;;;;;;;;;;5041713;28;20024;-66
2022/08/09 04:01:30;;;;;;;10.57;3.75;;;;;;;;;;5038540;28;20025;-66
2022/08/09 04:03:56;;;;;;;13.18;3.60;;;;;;;;;;5042290;28;20662;-65
2022/08/09 04:06:22;;;;;;;7.95;3.25;;;;;;;;;;5036836;28;20039;-66
2022/08/09 04:08:48;;;;;;;11.43;3.60;;;;;;;;;;5046091;28;20088;-65
2022/08/09 04:11:14;;;;;;;10.27;3.38;;;;;;;;;;5038014;28;20373;-65
2022/08/09 04:13:40;;;;;;;9.88;3.60;;;;;;;;;;5047781;28;20546;-65
2022/08/09 04:16:06;;;;;;;9.65;3.63;;;;;;;;;;5040754;28;20752;-66
2022/08/09 04:18:32;;;;;;;9.20;3.50;;;;;;;;;;5035335;28;20028;-65
2022/08/09 04:20:58;;;;;;;9.00;3.08;;;;;;;;;;5041236;28;20514;-65
2022/08/09 04:23:25;;;;;;;9.10;3.45;;;;;;;;;;5043064;28;20037;-65
2022/08/09 04:25:51;;;;;;;13.10;3.75;;;;;;;;;;5040524;28;20061;-64
2022/08/09 04:28:20;;;;;;;9.18;3.40;;;;;;;;;;5044303;28;20036;-65
2022/08/09 04:30:46;;;;;;;10.75;3.35;;;;;;;;;;5044146;28;20028;-65
2022/08/09 04:33:12;;;;;;;8.63;3.60;;;;;;;;;;5042333;28;20033;-65
2022/08/09 04:35:39;;;;;;;8.23;3.17;;;;;;;;;;5042763;28;20086;-64
2022/08/09 04:38:05;;;;;;;9.05;3.58;;;;;;;;;;5051170;28;20106;-65
2022/08/09 04:40:47;;;;;;;9.70;3.30;;;;;;;;;;5033948;28;20031;-64
2022/08/09 04:43:13;;;;;;;10.02;3.50;;;;;;;;;;5036491;28;20040;-64
2022/08/09 04:45:40;;;;;;;11.95;3.67;;;;;;;;;;5043904;28;20117;-65
2022/08/09 04:48:06;;;;;;;9.27;3.50;;;;;;;;;;5039532;28;20075;-65
2022/08/09 04:50:32;;;;;;;12.40;3.92;;;;;;;;;;5035381;28;20530;-67
2022/08/09 04:52:59;;;;;;;9.45;3.50;;;;;;;;;;5041059;28;20058;-65
2022/08/09 04:55:25;;;;;;;10.23;4.40;;;;;;;;;;5034442;28;20463;-65
2022/08/09 04:57:51;;;;;;;13.75;4.20;;;;;;;;;;5039982;28;20032;-64
2022/08/09 05:00:17;;;;;;;8.02;3.58;;;;;;;;;;5038914;28;20028;-65
2022/08/09 05:02:44;;;;;;;10.93;4.05;;;;;;;;;;5037624;28;20040;-64
2022/08/09 05:05:10;;;;;;;8.68;4.00;;;;;;;;;;5034125;28;20044;-65
2022/08/09 05:07:37;;;;;;;13.27;4.22;;;;;;;;;;5039894;28;20025;-65
2022/08/09 05:10:03;;;;;;;10.45;3.83;;;;;;;;;;5038754;28;20752;-65
2022/08/09 05:12:30;;;;;;;10.25;3.60;;;;;;;;;;5038761;28;22490;-66
2022/08/09 05:14:56;;;;;;;10.13;3.47;;;;;;;;;;5037880;28;20032;-65
2022/08/09 05:17:22;;;;;;;9.95;3.85;;;;;;;;;;5033660;28;20067;-65
2022/08/09 05:19:48;;;;;;;12.85;4.13;;;;;;;;;;5041445;28;20028;-65
2022/08/09 05:22:15;;;;;;;10.65;3.70;;;;;;;;;;5038551;28;20032;-66
2022/08/09 05:24:41;;;;;;;9.35;3.75;;;;;;;;;;5042909;28;20028;-66
2022/08/09 05:27:07;;;;;;;11.60;3.63;;;;;;;;;;5042673;28;20020;-66
2022/08/09 05:29:34;;;;;;;11.00;3.38;;;;;;;;;;5040522;28;20045;-66
2022/08/09 05:32:00;;;;;;;12.70;3.55;;;;;;;;;;5045103;28;20395;-66
2022/08/09 05:34:27;;;;;;;9.50;3.33;;;;;;;;;;5037750;28;20625;-66
2022/08/09 05:36:55;;;;;;;9.80;3.70;;;;;;;;;;5043939;28;20040;-66
2022/08/09 05:39:21;;;;;;;9.63;3.13;;;;;;;;;;5041584;28;20479;-66
2022/08/09 05:41:47;;;;;;;11.38;3.45;;;;;;;;;;5045199;28;20406;-66
2022/08/09 05:44:13;;;;;;;9.60;3.60;;;;;;;;;;5039629;28;20209;-66
2022/08/09 05:46:39;;;;;;;13.93;4.18;;;;;;;;;;5044816;28;20541;-66
2022/08/09 05:49:05;;;;;;;12.70;3.85;;;;;;;;;;5055571;28;20036;-66
2022/08/09 05:51:32;;;;;;;10.40;3.42;;;;;;;;;;5045527;28;20151;-66
2022/08/09 05:53:58;;;;;;;10.13;3.60;;;;;;;;;;5049137;28;20381;-66
2022/08/09 05:56:24;;;;;;;11.65;3.47;;;;;;;;;;5044006;28;20067;-66
2022/08/09 05:58:53;;;;;;;14.30;3.88;;;;;;;;;;5058406;28;20051;-66
2022/08/09 06:01:19;;;;;;;10.68;3.60;;;;;;;;;;5046680;28;20135;-66
2022/08/09 06:03:45;;;;;;;14.25;4.20;;;;;;;;;;5046335;28;20311;-66
2022/08/09 06:06:12;;;;;;;11.13;3.50;;;;;;;;;;5042484;28;20032;-66
2022/08/09 06:08:38;;;;;;;11.35;3.40;;;;;;;;;;5041410;28;20048;-66
2022/08/09 06:11:04;;;;;;;11.95;4.05;;;;;;;;;;5040328;28;20515;-66
2022/08/09 06:13:30;;;;;;;13.25;4.10;;;;;;;;;;5042720;28;20024;-66
2022/08/09 06:15:57;;;;;;;10.60;3.80;;;;;;;;;;5049852;28;20029;-66
2022/08/09 06:18:23;;;;;;;12.05;3.50;;;;;;;;;;5040167;28;20103;-66
2022/08/09 06:20:49;;;;;;;10.77;3.50;;;;;;;;;;5040789;28;20028;-66
2022/08/09 06:23:15;;;;;;;10.90;3.58;;;;;;;;;;5045059;28;20080;-66
2022/08/09 06:25:41;;;;;;;11.38;3.90;;;;;;;;;;5043060;28;20032;-66
2022/08/09 06:28:08;;;;;;;10.50;3.25;;;;;;;;;;5062193;28;20024;-66
2022/08/09 06:30:34;;;;;;;8.80;3.38;;;;;;;;;;5039193;28;20076;-68
2022/08/09 06:33:00;;;;;;;12.00;3.80;;;;;;;;;;5043200;28;20072;-65
2022/08/09 06:35:26;;;;;;;10.05;3.75;;;;;;;;;;5040550;28;20046;-66
2022/08/09 06:37:52;;;;;;;8.85;3.25;;;;;;;;;;5041474;28;20479;-66
2022/08/09 06:40:19;;;;;;;14.05;3.30;;;;;;;;;;5035220;28;20032;-66
2022/08/09 06:42:45;;;;;;;10.68;3.75;;;;;;;;;;5042264;28;20173;-65
2022/08/09 06:45:11;;;;;;;10.63;3.50;;;;;;;;;;5042179;28;20048;-66
2022/08/09 06:47:37;;;;;;;9.30;3.50;;;;;;;;;;5044423;28;20024;-65
2022/08/09 06:50:05;;;;;;;7.95;3.40;;;;;;;;;;5044393;28;20064;-65
2022/08/09 06:52:31;;;;;;;9.63;3.72;;;;;;;;;;5041023;28;20258;-66
2022/08/09 06:54:57;;;;;;;10.73;3.80;;;;;;;;;;5058048;28;20044;-65
2022/08/09 06:57:24;;;;;;;11.05;3.55;;;;;;;;;;5041789;28;20029;-65
2022/08/09 06:59:51;;;;;;;10.43;3.20;;;;;;;;;;5041618;28;20713;-65
2022/08/09 07:02:17;;;;;;;10.75;3.05;;;;;;;;;;5040118;28;20052;-65
2022/08/09 07:04:43;;;;;;;9.88;3.60;;;;;;;;;;5051158;28;20033;-65
2022/08/09 07:07:09;;;;;;;13.20;3.88;;;;;;;;;;5042688;28;20020;-65
2022/08/09 07:09:35;;;;;;;10.73;3.78;;;;;;;;;;5044698;28;20191;-66
2022/08/09 07:12:01;;;;;;;10.73;4.30;;;;;;;;;;5044741;28;20020;-65
2022/08/09 07:14:27;;;;;;;13.32;5.40;;;;;;;;;;5036752;28;20073;-67
2022/08/09 07:16:54;;;;;;;10.32;4.60;;;;;;;;;;5041472;28;20032;-66
2022/08/09 07:19:20;;;;;;;12.23;5.15;;;;;;;;;;5041373;28;20482;-66
2022/08/09 07:21:47;;;;;;;11.02;4.88;;;;;;;;;;5038886;28;20123;-66
2022/08/09 07:24:14;;;;;;;10.10;4.15;;;;;;;;;;5038385;28;20470;-65
2022/08/09 07:26:40;;;;;;;9.52;4.20;;;;;;;;;;5040681;28;20036;-66
2022/08/09 07:29:06;;;;;;;9.88;3.78;;;;;;;;;;5038003;28;20037;-65
2022/08/09 07:31:32;;;;;;;10.65;4.22;;;;;;;;;;5042729;28;20029;-65
2022/08/09 07:33:58;;;;;;;12.15;4.30;;;;;;;;;;5040333;28;20036;-66
2022/08/09 07:36:24;;;;;;;10.25;4.20;;;;;;;;;;5039944;28;20339;-66
2022/08/09 07:38:50;;;;;;;12.18;3.80;;;;;;;;;;5042767;28;20815;-65
2022/08/09 07:41:16;;;;;;;11.02;3.95;;;;;;;;;;5035320;28;20023;-66
2022/08/09 07:43:42;;;;;;;9.35;3.60;;;;;;;;;;5041648;28;20428;-65
2022/08/09 07:46:10;;;;;;;12.20;4.00;;;;;;;;;;5039857;28;20036;-66
2022/08/09 07:48:36;;;;;;;12.32;4.07;;;;;;;;;;5040113;28;20043;-66
2022/08/09 07:51:02;;;;;;;11.15;3.83;;;;;;;;;;5042036;28;20130;-66
2022/08/09 07:53:28;;;;;;;11.20;4.00;;;;;;;;;;5039392;28;20550;-65
2022/08/09 07:55:55;;;;;;;11.07;3.70;;;;;;;;;;5040336;28;20334;-66
2022/08/09 07:58:22;;;;;;;11.50;4.25;;;;;;;;;;5042119;28;21156;-65
2022/08/09 08:00:49;;;;;;;9.10;3.33;;;;;;;;;;5046543;28;20584;-65
2022/08/09 08:03:15;;;;;;;11.65;3.70;;;;;;;;;;5042742;28;20070;-65
2022/08/09 08:05:41;;;;;;;11.60;3.45;;;;;;;;;;5050429;28;20482;-65
2022/08/09 08:08:07;;;;;;;12.90;3.40;;;;;;;;;;5049042;28;20086;-66
2022/08/09 08:10:33;;;;;;;8.25;3.00;;;;;;;;;;5038628;28;20120;-66
2022/08/09 08:12:59;;;;;;;8.15;2.90;;;;;;;;;;5041685;28;20553;-66
2022/08/09 08:15:25;;;;;;;8.40;3.00;;;;;;;;;;5038571;28;20075;-66
2022/08/09 08:17:52;;;;;;;9.25;2.90;;;;;;;;;;5039046;28;20441;-66
2022/08/09 08:20:22;;;;;;;10.18;3.28;;;;;;;;;;5036617;28;20036;-66
2022/08/09 08:22:48;;;;;;;7.78;3.10;;;;;;;;;;5044077;28;21176;-66
2022/08/09 08:25:14;;;;;;;8.82;2.67;;;;;;;;;;5037035;28;20032;-66
2022/08/09 08:27:41;;;;;;;8.15;2.80;;;;;;;;;;5045233;28;20098;-66
2022/08/09 08:30:08;;;;;;;6.10;2.20;;;;;;;;;;5041925;28;20454;-66
2022/08/09 08:32:34;;;;;;;5.90;2.30;;;;;;;;;;5038809;28;20105;-66
2022/08/09 08:35:00;;;;;;;10.02;2.88;;;;;;;;;;5046604;28;20132;-65
2022/08/09 08:37:27;;;;;;;7.43;2.70;;;;;;;;;;5037765;28;20033;-65
2022/08/09 08:39:53;;;;;;;7.70;2.63;;;;;;;;;;5042199;28;20087;-65
2022/08/09 08:42:20;;;;;;;8.02;2.60;;;;;;;;;;5039846;28;20107;-67
2022/08/09 08:44:48;;;;;;;8.55;2.38;;;;;;;;;;5041041;28;20025;-65
2022/08/09 08:47:14;;;;;;;6.88;1.98;;;;;;;;;;5039860;28;20056;-65
2022/08/09 08:49:41;;;;;;;6.15;2.15;;;;;;;;;;5041200;28;21725;-65
2022/08/09 08:52:07;;;;;;;11.98;2.33;;;;;;;;;;5048663;28;20048;-66
2022/08/09 08:54:34;;;;;;;16.48;2.88;;;;;;;;;;5044390;28;20060;-65
2022/08/09 08:57:00;;;;;;;13.43;2.60;;;;;;;;;;5050906;28;20785;-64
2022/08/09 08:59:26;;;;;;;10.88;2.67;;;;;;;;;;5045732;28;20105;-64
2022/08/09 09:01:52;;;;;;;11.32;2.60;;;;;;;;;;5048249;28;20028;-65
2022/08/09 09:04:19;;;;;;;8.88;2.13;;;;;;;;;;5041976;28;20053;-65
2022/08/09 09:06:47;;;;;;;8.38;1.90;;;;;;;;;;5044445;28;20044;-65
2022/08/09 09:09:15;;;;;;;6.20;1.90;;;;;;;;;;5037370;28;20040;-65
2022/08/09 09:11:42;;;;;;;6.65;1.92;;;;;;;;;;5043811;28;20036;-65
2022/08/09 09:14:13;;;;;;;8.43;2.05;;;;;;;;;;5042480;28;20183;-65
2022/08/09 09:16:39;;;;;;;4.90;1.75;;;;;;;;;;5039161;28;20038;-65
2022/08/09 09:19:06;;;;;;;6.57;1.88;;;;;;;;;;5045917;28;20253;-65
2022/08/09 09:21:32;;;;;;;6.28;1.80;;;;;;;;;;5041557;28;20131;-65
2022/08/09 09:24:07;;;;;;;8.40;2.20;;;;;;;;;;5043541;28;20044;-65
2022/08/09 09:26:34;;;;;;;8.48;2.10;;;;;;;;;;5050269;28;20036;-65
2022/08/09 09:29:01;;;;;;;12.60;2.40;;;;;;;;;;5046059;28;20248;-65
2022/08/09 09:31:28;;;;;;;6.03;2.58;;;;;;;;;;5046148;28;20095;-66
2022/08/09 09:34:09;;;;;;;4.65;1.70;;;;;;;;;;5051501;28;20068;-65
2022/08/09 09:36:42;;;;;;;7.15;2.00;;;;;;;;;;5048198;28;20028;-65
2022/08/09 09:39:10;;;;;;;5.55;1.80;;;;;;;;;;5040954;28;20405;-65
2022/08/09 09:41:36;;;;;;;11.40;2.15;;;;;;;;;;5043885;28;20127;-65
2022/08/09 09:44:04;;;;;;;8.80;1.80;;;;;;;;;;5044205;28;20050;-65
2022/08/09 09:46:38;;;;;;;4.80;1.80;;;;;;;;;;5039314;28;20230;-65
2022/08/09 09:49:05;;;;;;;6.00;1.73;;;;;;;;;;5044340;28;20115;-65
2022/08/09 09:51:32;;;;;;;6.13;2.28;;;;;;;;;;5040424;28;20055;-65
2022/08/09 09:54:19;;;;;;;7.57;2.03;;;;;;;;;;5044104;28;20462;-66
2022/08/09 09:56:46;;;;;;;5.57;1.88;;;;;;;;;;5046184;28;20020;-65
2022/08/09 09:59:13;;;;;;;7.63;1.90;;;;;;;;;;5058700;28;20028;-66
2022/08/09 10:01:41;;;;;;;5.80;2.00;;;;;;;;;;5044021;28;20072;-65
2022/08/09 10:04:19;;;;;;;5.90;2.08;;;;;;;;;;5063884;28;20036;-65
2022/08/09 10:06:47;;;;;;;10.82;2.47;;;;;;;;;;5045605;28;20382;-65
2022/08/09 10:09:14;;;;;;;6.40;2.10;;;;;;;;;;5038511;28;20040;-66
2022/08/09 10:11:41;;;;;;;5.13;1.90;;;;;;;;;;5042635;28;20594;-66
2022/08/09 10:14:20;;;;;;;8.43;2.20;;;;;;;;;;5049589;28;20371;-66
2022/08/09 10:16:46;;;;;;;6.95;2.00;;;;;;;;;;5044451;28;20025;-66
2022/08/09 10:19:13;;;;;;;6.30;2.00;;;;;;;;;;5036917;28;20044;-66
2022/08/09 10:21:48;;;;;;;7.35;1.92;;;;;;;;;;5046034;28;20819;-66
2022/08/09 10:24:18;;;;;;;6.90;2.00;;;;;;;;;;5041504;28;20029;-66
2022/08/09 10:26:48;;;;;;;6.38;2.00;;;;;;;;;;5052032;28;20024;-66
2022/08/09 10:29:14;;;;;;;6.68;1.90;;;;;;;;;;5056247;28;20043;-66
2022/08/09 10:31:40;;;;;;;8.23;1.98;;;;;;;;;;5050300;28;20357;-65
2022/08/09 10:34:07;;;;;;;7.07;2.20;;;;;;;;;;5047281;28;20059;-65
2022/08/09 10:36:33;;;;;;;6.78;2.00;;;;;;;;;;5048349;28;20063;-66
2022/08/09 10:39:00;;;;;;;6.45;2.20;;;;;;;;;;5044237;28;20039;-66
2022/08/09 10:41:27;;;;;;;6.05;1.98;;;;;;;;;;5040596;28;20036;-66
2022/08/09 10:43:53;;;;;;;5.78;2.05;;;;;;;;;;5043698;28;20116;-66
2022/08/09 10:46:38;;;;;;;7.35;2.10;;;;;;;;;;5036037;28;20843;-66
2022/08/09 10:49:04;;;;;;;7.20;1.88;;;;;;;;;;5045984;28;20047;-66
2022/08/09 10:51:45;;;;;;;8.55;1.70;;;;;;;;;;5038158;28;20059;-66
2022/08/09 10:54:12;;;;;;;5.68;1.90;;;;;;;;;;5036777;28;20343;-66
2022/08/09 10:56:39;;;;;;;6.25;1.83;;;;;;;;;;5042361;28;20031;-67
2022/08/09 10:59:25;;;;;;;6.97;1.80;;;;;;;;;;5056990;28;20116;-67
2022/08/09 11:01:52;;;;;;;7.20;1.83;;;;;;;;;;5058629;28;20032;-66
2022/08/09 11:04:19;;;;;;;7.10;1.75;;;;;;;;;;5038549;28;20036;-66
2022/08/09 11:06:46;;;;;;;6.95;1.92;;;;;;;;;;5039718;28;20185;-66
2022/08/09 11:09:16;;;;;;;7.45;1.55;;;;;;;;;;5040475;28;20572;-66
2022/08/09 11:11:57;;;;;;;5.25;1.80;;;;;;;;;;5040556;28;20035;-66
2022/08/09 11:14:36;;;;;;;6.13;1.60;;;;;;;;;;5039094;28;20037;-66
2022/08/09 11:17:25;;;;;;;5.85;1.77;;;;;;;;;;5041488;28;20511;-66
2022/08/09 11:19:54;;;;;;;7.65;1.80;;;;;;;;;;5036949;28;20431;-65
2022/08/09 11:22:21;;;;;;;6.40;1.77;;;;;;;;;;5040884;28;20035;-65
2022/08/09 11:25:02;;;;;;;4.65;1.70;;;;;;;;;;5049831;28;20542;-67
2022/08/09 11:27:39;;;;;;;7.13;1.75;;;;;;;;;;5043085;28;20036;-65
2022/08/09 11:30:06;;;;;;;4.90;1.70;;;;;;;;;;5065446;28;20874;-65
2022/08/09 11:32:39;;;;;;;6.25;1.65;;;;;;;;;;5054531;28;20032;-65
2022/08/09 11:35:17;;;;;;;7.35;1.92;;;;;;;;;;5036575;28;20120;-65
2022/08/09 11:37:43;;;;;;;6.70;1.90;;;;;;;;;;5037872;28;21563;-65
2022/08/09 11:40:13;;;;;;;6.70;1.92;;;;;;;;;;5035058;28;20024;-65
2022/08/09 11:42:42;;;;;;;5.78;1.83;;;;;;;;;;5037794;28;20076;-66
2022/08/09 11:45:21;;;;;;;4.97;1.80;;;;;;;;;;5032345;28;20048;-66
2022/08/09 11:47:48;;;;;;;7.80;2.47;;;;;;;;;;5037782;28;20380;-66
2022/08/09 11:50:14;;;;;;;6.32;1.88;;;;;;;;;;5034609;28;20051;-65
2022/08/09 11:52:59;;;;;;;5.60;1.58;;;;;;;;;;5035649;28;20036;-66
2022/08/09 11:55:29;;;;;;;6.35;1.80;;;;;;;;;;5048331;28;20208;-67
2022/08/09 11:57:58;;;;;;;5.80;1.77;;;;;;;;;;5041693;28;20048;-66
2022/08/09 12:00:25;;;;;;;7.45;1.70;;;;;;;;;;5035610;28;20035;-66
2022/08/09 12:02:51;;;;;;;4.85;1.88;;;;;;;;;;5041927;28;20067;-66
2022/08/09 12:05:17;;;;;;;6.65;1.80;;;;;;;;;;5041681;28;20032;-66
2022/08/09 12:07:43;;;;;;;4.95;1.90;;;;;;;;;;5041648;28;20482;-66
2022/08/09 12:10:11;;;;;;;5.50;1.60;;;;;;;;;;5035305;28;20135;-66
2022/08/09 12:12:47;;;;;;;5.70;1.67;;;;;;;;;;5033817;28;20263;-68
2022/08/09 12:15:23;;;;;;;7.38;1.90;;;;;;;;;;5036873;28;20037;-66
2022/08/09 12:17:50;;;;;;;5.97;1.80;;;;;;;;;;5042623;28;20035;-66
2022/08/09 12:20:26;;;;;;;7.68;2.03;;;;;;;;;;5036955;28;20376;-66
2022/08/09 12:23:02;;;;;;;5.20;1.83;;;;;;;;;;5042996;28;20060;-66
2022/08/09 12:25:31;;;;;;;5.15;1.70;;;;;;;;;;5038670;28;20062;-66
2022/08/09 12:28:10;;;;;;;6.07;1.88;;;;;;;;;;5039739;28;20526;-66
2022/08/09 12:30:36;;;;;;;5.47;1.70;;;;;;;;;;5042025;28;20400;-67
2022/08/09 12:33:03;;;;;;;8.95;1.90;;;;;;;;;;5041504;28;20044;-66
2022/08/09 12:35:29;;;;;;;5.68;1.67;;;;;;;;;;5036465;28;20348;-66
2022/08/09 12:37:55;;;;;;;6.18;1.83;;;;;;;;;;5041011;28;20030;-66
2022/08/09 12:40:26;;;;;;;5.20;1.65;;;;;;;;;;5038604;28;20343;-66
2022/08/09 12:42:53;;;;;;;8.43;1.80;;;;;;;;;;5039980;28;20534;-67
2022/08/09 12:45:20;;;;;;;5.35;1.60;;;;;;;;;;5038961;28;20075;-66
2022/08/09 12:47:46;;;;;;;5.03;1.60;;;;;;;;;;5042149;28;20462;-66
2022/08/09 12:50:16;;;;;;;7.07;1.60;;;;;;;;;;5034750;28;20466;-67
2022/08/09 12:52:43;;;;;;;4.18;1.40;;;;;;;;;;5042499;28;20040;-67
2022/08/09 12:55:10;;;;;;;4.85;1.50;;;;;;;;;;5034691;28;20264;-66
2022/08/09 12:57:43;;;;;;;9.82;1.60;;;;;;;;;;5038912;28;20200;-66
2022/08/09 13:00:11;;;;;;;4.05;1.52;;;;;;;;;;5041532;28;20024;-66
2022/08/09 13:02:52;;;;;;;5.10;1.70;;;;;;;;;;5044850;28;20029;-66
2022/08/09 13:05:19;;;;;;;4.43;1.42;;;;;;;;;;5042192;28;20390;-66
2022/08/09 13:08:04;;;;;;;5.60;1.25;;;;;;;;;;5040957;28;20040;-66
2022/08/09 13:10:30;;;;;;;4.50;1.60;;;;;;;;;;5050340;28;21452;-65
2022/08/09 13:12:59;;;;;;;6.60;1.52;;;;;;;;;;5039484;28;20602;-65
2022/08/09 13:15:25;;;;;;;3.85;1.40;;;;;;;;;;5037189;28;20318;-66
2022/08/09 13:17:52;;;;;;;3.30;1.40;;;;;;;;;;5043174;28;20123;-65
2022/08/09 13:20:31;;;;;;;6.55;1.52;;;;;;;;;;5038298;28;20020;-66
2022/08/09 13:22:59;;;;;;;4.88;1.25;;;;;;;;;;5037229;28;20029;-65
2022/08/09 13:25:25;;;;;;;3.28;1.30;;;;;;;;;;5042060;28;20024;-65
2022/08/09 13:27:51;;;;;;;4.07;1.58;;;;;;;;;;5045173;28;20052;-65
2022/08/09 13:30:18;;;;;;;6.10;1.52;;;;;;;;;;5037323;28;20032;-65
2022/08/09 13:32:44;;;;;;;4.05;1.30;;;;;;;;;;5043191;28;20866;-65
2022/08/09 13:35:11;;;;;;;4.78;1.80;;;;;;;;;;5038764;28;20053;-66
2022/08/09 13:37:37;;;;;;;6.88;1.70;;;;;;;;;;5042219;28;20036;-66
2022/08/09 13:40:04;;;;;;;4.35;1.50;;;;;;;;;;5039381;28;20143;-65
2022/08/09 13:42:30;;;;;;;4.90;1.60;;;;;;;;;;5042941;28;20134;-66
2022/08/09 13:44:56;;;;;;;3.00;1.25;;;;;;;;;;5041855;28;20029;-66
2022/08/09 13:47:22;;;;;;;7.47;1.65;;;;;;;;;;5039218;28;20033;-65
2022/08/09 13:49:50;;;;;;;3.50;1.45;;;;;;;;;;5043143;28;20082;-66
2022/08/09 13:52:16;;;;;;;4.78;1.65;;;;;;;;;;5039816;28;20323;-64
2022/08/09 13:54:42;;;;;;;5.70;1.65;;;;;;;;;;5039707;28;20037;-65
2022/08/09 13:57:08;;;;;;;6.50;1.70;;;;;;;;;;5041591;28;20024;-65
2022/08/09 13:59:35;;;;;;;4.18;1.55;;;;;;;;;;5042273;28;20028;-68
2022/08/09 14:02:01;;;;;;;4.15;1.52;;;;;;;;;;5044347;28;20031;-67
2022/08/09 14:04:28;;;;;;;4.30;1.48;;;;;;;;;;5038495;28;20116;-65
2022/08/09 14:06:58;;;;;;;4.57;1.40;;;;;;;;;;5040579;28;20064;-66
2022/08/09 14:09:25;;;;;;;3.58;1.50;;;;;;;;;;5034054;28;20811;-66
2022/08/09 14:11:52;;;;;;;3.50;1.50;;;;;;;;;;5040939;28;20097;-66
2022/08/09 14:14:18;;;;;;;5.38;1.50;;;;;;;;;;5036900;28;20040;-66
2022/08/09 14:16:44;;;;;;;3.95;1.30;;;;;;;;;;5042972;28;20566;-67
2022/08/09 14:19:10;;;;;;;3.22;1.30;;;;;;;;;;5039122;28;20035;-67
2022/08/09 14:21:36;;;;;;;4.22;1.45;;;;;;;;;;5041082;28;20566;-66
2022/08/09 14:24:03;;;;;;;3.67;1.23;;;;;;;;;;5043636;28;20442;-66
2022/08/09 14:26:30;;;;;;;4.05;1.45;;;;;;;;;;5035315;28;20393;-66
2022/08/09 14:28:56;;;;;;;7.45;1.38;;;;;;;;;;5042158;28;20330;-66
2022/08/09 14:31:22;;;;;;;4.70;1.20;;;;;;;;;;5046192;28;20493;-66
2022/08/09 14:33:48;;;;;;;4.88;1.40;;;;;;;;;;5042554;28;20078;-66
2022/08/09 14:36:14;;;;;;;3.50;1.10;;;;;;;;;;5038306;28;20394;-66
2022/08/09 14:38:40;;;;;;;3.80;1.27;;;;;;;;;;5039266;28;20024;-65
2022/08/09 14:41:07;;;;;;;4.07;1.40;;;;;;;;;;5041168;28;20071;-65
2022/08/09 14:43:33;;;;;;;5.80;1.50;;;;;;;;;;5039592;28;20617;-65